This is the latest recevied weather packets stored in our database for station/object EA2KR-10. If no packets are shown the sender has not sent any weather packets the latest 10 day(s).
| Time | Temp. | Humidity | Pressure | Rain* | Wind** | Luminosity | Snow |
|---|---|---|---|---|---|---|---|
| 1787619798 | 27.78° C | 29% | 1024.3 hPa | - | - | - | - |
| 1787617997 | 28.33° C | 28% | 1024.3 hPa | - | - | - | - |
| 1787616197 | 28.89° C | 28% | 1024.2 hPa | - | - | - | - |
| 1787614397 | 29.44° C | 27% | 1024 hPa | - | - | - | - |
| 1787612597 | 30° C | 26% | 1024 hPa | - | - | - | - |
| 1787610797 | 30.56° C | 25% | 1024 hPa | - | - | - | - |
| 1787608997 | 31.11° C | 25% | 1024 hPa | - | - | - | - |
| 1787607261 | 31.67° C | 25% | 1024.2 hPa | - | - | - | - |
| 1787607229 | 31.67° C | 25% | 1024.2 hPa | - | - | - | - |
| 1787607197 | 31.67° C | 25% | 1024.2 hPa | - | - | - | - |
| 1787605396 | 32.22° C | 24% | 1024.1 hPa | - | - | - | - |
| 1787603596 | 33.33° C | 24% | 1024 hPa | - | - | - | - |
| 1787601796 | 33.89° C | 23% | 1023.6 hPa | - | - | - | - |
| 1787599996 | 35° C | 22% | 1023.2 hPa | - | - | - | - |
| 1787598196 | 36.11° C | 22% | 1023.1 hPa | - | - | - | - |
| 1787596399 | 37.22° C | 20% | 1023 hPa | - | - | - | - |
| 1787594599 | 38.89° C | 20% | 1022.6 hPa | - | - | - | - |
| 1787592799 | 39.44° C | 19% | 1022.4 hPa | - | - | - | - |
| 1787590999 | 41.11° C | 19% | 1022.2 hPa | - | - | - | - |
| 1787589199 | 41.67° C | 19% | 1021.9 hPa | - | - | - | - |
| 1787587399 | 41.11° C | 19% | 1021.9 hPa | - | - | - | - |
| 1787585599 | 40.56° C | 20% | 1021.9 hPa | - | - | - | - |
| 1787583798 | 39.44° C | 21% | 1022.2 hPa | - | - | - | - |
| 1787581998 | 38.33° C | 21% | 1022.4 hPa | - | - | - | - |
| 1787580198 | 37.78° C | 22% | 1022.9 hPa | - | - | - | - |
* Rain since midnight (hover to see other rain measurements)
** Current wind speed in m/s (hover to see current wind gust speed)